createdAt,value
2022-09-28T00:09:46.042Z,100.00
2022-09-28T00:24:49.149Z,100.00
2022-09-28T00:39:52.228Z,100.00
2022-09-28T00:54:58.036Z,100.00
2022-09-28T01:10:01.666Z,100.00
2022-09-28T01:25:21.696Z,100.00
2022-09-28T01:40:28.916Z,100.00
2022-09-28T01:55:37.599Z,100.00
2022-09-28T02:11:03.432Z,100.00
2022-09-28T02:26:10.845Z,100.00
2022-09-28T02:41:40.232Z,100.00
2022-09-28T02:56:52.626Z,100.00
2022-09-28T03:12:03.822Z,100.00
2022-09-28T03:38:55.816Z,100.00
2022-09-28T03:54:00.125Z,100.00
2022-09-28T04:09:04.052Z,100.00
2022-09-28T04:24:07.197Z,100.00
2022-09-28T04:39:12.005Z,100.00
2022-09-28T05:14:43.482Z,100.00
2022-09-28T05:29:46.995Z,100.00
2022-09-28T05:45:10.617Z,100.00
2022-09-28T06:00:16.574Z,100.00
2022-09-28T06:15:27.185Z,100.00
2022-09-28T06:30:34.712Z,100.00
2022-09-28T06:45:39.767Z,100.00
2022-09-28T07:01:18.768Z,100.00
2022-09-28T07:16:56.452Z,100.00
2022-09-28T07:31:55.654Z,100.00
2022-09-28T07:47:19.433Z,100.00
2022-09-28T08:02:41.314Z,100.00
2022-09-28T08:17:47.832Z,100.00
2022-09-28T08:32:51.675Z,100.00
2022-09-28T08:48:56.323Z,100.00
2022-09-28T09:04:25.812Z,100.00
2022-09-28T09:19:55.213Z,99.59
2022-09-28T09:35:46.455Z,99.10
2022-09-28T09:51:40.116Z,94.21
2022-09-28T10:06:44.578Z,83.99
2022-09-28T10:21:53.314Z,79.28
2022-09-28T10:37:11.594Z,80.39
2022-09-28T10:52:40.611Z,80.75
2022-09-28T11:07:47.493Z,79.18
2022-09-28T11:22:56.417Z,78.28
2022-09-28T11:38:06.384Z,77.49
2022-09-28T11:53:37.640Z,70.24
2022-09-28T12:08:45.508Z,71.62
2022-09-28T12:24:32.835Z,70.64
2022-09-28T12:40:23.262Z,66.46
2022-09-28T12:55:51.267Z,63.63
2022-09-28T13:11:15.832Z,61.47
2022-09-28T13:26:30.062Z,58.63
2022-09-28T13:41:39.185Z,62.04
2022-09-28T13:57:14.351Z,62.32
2022-09-28T14:12:44.888Z,47.89
2022-09-28T14:28:07.135Z,44.83
2022-09-28T14:43:44.887Z,52.39
2022-09-28T14:58:54.053Z,56.94
2022-09-28T15:14:08.575Z,55.55
2022-09-28T15:29:19.123Z,55.94
2022-09-28T15:44:30.117Z,59.90
2022-09-28T15:59:40.083Z,63.16
2022-09-28T16:35:51.219Z,69.10
2022-09-28T16:50:56.992Z,71.32
2022-09-28T17:06:05.800Z,73.90
2022-09-28T17:21:19.748Z,75.66
2022-09-28T17:36:24.005Z,77.84
2022-09-28T17:51:35.170Z,80.00
2022-09-28T18:06:42.737Z,82.17
2022-09-28T18:21:46.551Z,83.42
2022-09-28T18:36:50.187Z,86.74
2022-09-28T18:51:53.255Z,90.15
2022-09-28T19:06:56.346Z,90.34
2022-09-28T19:22:00.970Z,93.40
2022-09-28T19:37:05.433Z,93.70
2022-09-28T19:52:16.854Z,94.58
2022-09-28T20:07:21.013Z,97.31
2022-09-28T20:22:24.311Z,99.48
2022-09-28T20:37:27.853Z,100.00
2022-09-28T20:52:31.311Z,100.00
2022-09-28T21:07:34.439Z,100.00
2022-09-28T21:22:37.417Z,100.00
2022-09-28T21:37:40.838Z,100.00
2022-09-28T21:52:43.981Z,100.00
2022-09-28T22:07:47.050Z,100.00
2022-09-28T22:22:51.092Z,100.00
2022-09-28T22:37:54.337Z,100.00
2022-09-28T22:52:57.511Z,100.00
2022-09-28T23:08:00.888Z,100.00
2022-09-28T23:23:03.877Z,100.00
2022-09-28T23:38:08.090Z,100.00
2022-09-28T23:53:14.556Z,100.00
